sensor_id;sensor_type;location;lat;lon;timestamp;pressure;altitude;pressure_sealevel;temperature;humidity
29839;BME280;18669;53.356;-1.464;2023-02-10T00:00:51;102470.75;;;7.29;95.61
29839;BME280;18669;53.356;-1.464;2023-02-10T00:03:17;102484.63;;;7.25;96.50
29839;BME280;18669;53.356;-1.464;2023-02-10T00:05:43;102481.88;;;7.19;97.49
29839;BME280;18669;53.356;-1.464;2023-02-10T00:08:09;102483.63;;;7.19;97.71
29839;BME280;18669;53.356;-1.464;2023-02-10T00:10:36;102484.31;;;7.11;98.77
29839;BME280;18669;53.356;-1.464;2023-02-10T00:13:02;102481.63;;;7.08;98.58
29839;BME280;18669;53.356;-1.464;2023-02-10T00:15:28;102476.16;;;6.99;99.12
29839;BME280;18669;53.356;-1.464;2023-02-10T00:17:54;102477.78;;;6.94;100.00
29839;BME280;18669;53.356;-1.464;2023-02-10T00:20:20;102479.50;;;6.93;100.00
29839;BME280;18669;53.356;-1.464;2023-02-10T00:22:46;102469.91;;;6.92;100.00
29839;BME280;18669;53.356;-1.464;2023-02-10T00:25:12;102475.13;;;6.92;100.00
29839;BME280;18669;53.356;-1.464;2023-02-10T00:27:37;102470.66;;;6.86;100.00
29839;BME280;18669;53.356;-1.464;2023-02-10T00:30:04;102472.25;;;6.81;100.00
29839;BME280;18669;53.356;-1.464;2023-02-10T00:32:30;102474.78;;;6.78;100.00
29839;BME280;18669;53.356;-1.464;2023-02-10T00:34:56;102481.72;;;6.76;100.00
29839;BME280;18669;53.356;-1.464;2023-02-10T00:37:21;102485.94;;;6.71;100.00
29839;BME280;18669;53.356;-1.464;2023-02-10T00:39:47;102483.22;;;6.66;100.00
29839;BME280;18669;53.356;-1.464;2023-02-10T00:42:13;102475.81;;;6.50;100.00
29839;BME280;18669;53.356;-1.464;2023-02-10T00:44:39;102467.19;;;6.52;100.00
29839;BME280;18669;53.356;-1.464;2023-02-10T00:47:05;102460.19;;;6.51;100.00
29839;BME280;18669;53.356;-1.464;2023-02-10T00:49:31;102463.50;;;6.46;100.00
29839;BME280;18669;53.356;-1.464;2023-02-10T00:51:57;102459.69;;;6.33;100.00
29839;BME280;18669;53.356;-1.464;2023-02-10T00:54:23;102463.19;;;6.33;100.00
29839;BME280;18669;53.356;-1.464;2023-02-10T00:56:49;102467.53;;;6.33;100.00
29839;BME280;18669;53.356;-1.464;2023-02-10T00:59:16;102467.50;;;6.31;100.00
29839;BME280;18669;53.356;-1.464;2023-02-10T01:01:42;102459.47;;;6.25;100.00
29839;BME280;18669;53.356;-1.464;2023-02-10T01:04:08;102472.47;;;6.22;100.00
29839;BME280;18669;53.356;-1.464;2023-02-10T01:06:34;102471.47;;;6.18;100.00
29839;BME280;18669;53.356;-1.464;2023-02-10T01:09:00;102456.53;;;6.12;100.00
29839;BME280;18669;53.356;-1.464;2023-02-10T01:11:26;102469.84;;;6.22;100.00
29839;BME280;18669;53.356;-1.464;2023-02-10T01:13:52;102463.59;;;6.17;100.00
29839;BME280;18669;53.356;-1.464;2023-02-10T01:16:18;102457.53;;;6.18;100.00
29839;BME280;18669;53.356;-1.464;2023-02-10T01:18:45;102457.66;;;6.22;100.00
29839;BME280;18669;53.356;-1.464;2023-02-10T01:21:14;102458.59;;;6.24;100.00
29839;BME280;18669;53.356;-1.464;2023-02-10T01:23:40;102456.59;;;6.14;100.00
29839;BME280;18669;53.356;-1.464;2023-02-10T01:26:08;102456.72;;;6.20;100.00
29839;BME280;18669;53.356;-1.464;2023-02-10T01:28:36;102456.72;;;6.20;100.00
29839;BME280;18669;53.356;-1.464;2023-02-10T01:31:06;102450.72;;;6.23;100.00
29839;BME280;18669;53.356;-1.464;2023-02-10T01:33:32;102459.72;;;6.02;100.00
29839;BME280;18669;53.356;-1.464;2023-02-10T01:36:03;102452.81;;;6.04;100.00
29839;BME280;18669;53.356;-1.464;2023-02-10T01:38:29;102465.50;;;5.92;100.00
29839;BME280;18669;53.356;-1.464;2023-02-10T01:40:55;102449.88;;;5.93;100.00
29839;BME280;18669;53.356;-1.464;2023-02-10T01:43:21;102434.94;;;5.89;100.00
29839;BME280;18669;53.356;-1.464;2023-02-10T01:45:47;102443.22;;;5.74;100.00
29839;BME280;18669;53.356;-1.464;2023-02-10T01:48:13;102440.69;;;5.76;100.00
29839;BME280;18669;53.356;-1.464;2023-02-10T01:50:41;102470.00;;;5.67;100.00
29839;BME280;18669;53.356;-1.464;2023-02-10T01:53:09;102476.13;;;5.67;100.00
29839;BME280;18669;53.356;-1.464;2023-02-10T01:55:36;102482.38;;;5.73;100.00
29839;BME280;18669;53.356;-1.464;2023-02-10T01:58:07;102481.28;;;5.66;100.00
29839;BME280;18669;53.356;-1.464;2023-02-10T02:00:34;102470.59;;;5.57;100.00
29839;BME280;18669;53.356;-1.464;2023-02-10T02:03:01;102477.81;;;5.65;100.00
29839;BME280;18669;53.356;-1.464;2023-02-10T02:08:04;102447.59;;;5.74;100.00
29839;BME280;18669;53.356;-1.464;2023-02-10T02:10:43;102441.66;;;5.79;100.00
29839;BME280;18669;53.356;-1.464;2023-02-10T02:22:00;102449.03;;;5.94;100.00
29839;BME280;18669;53.356;-1.464;2023-02-10T02:33:25;102427.94;;;5.88;100.00
29839;BME280;18669;53.356;-1.464;2023-02-10T02:36:01;102426.03;;;5.81;100.00
29839;BME280;18669;53.356;-1.464;2023-02-10T02:38:29;102420.34;;;5.65;100.00
29839;BME280;18669;53.356;-1.464;2023-02-10T02:40:55;102415.34;;;5.73;100.00
29839;BME280;18669;53.356;-1.464;2023-02-10T02:43:22;102398.34;;;5.56;100.00
29839;BME280;18669;53.356;-1.464;2023-02-10T02:46:11;102393.38;;;5.65;100.00
29839;BME280;18669;53.356;-1.464;2023-02-10T02:49:05;102383.28;;;5.47;100.00
29839;BME280;18669;53.356;-1.464;2023-02-10T02:51:47;102375.38;;;5.15;100.00
29839;BME280;18669;53.356;-1.464;2023-02-10T02:59:41;102366.53;;;5.10;100.00
29839;BME280;18669;53.356;-1.464;2023-02-10T03:02:12;102356.66;;;4.99;100.00
29839;BME280;18669;53.356;-1.464;2023-02-10T03:04:40;102358.25;;;4.94;100.00
29839;BME280;18669;53.356;-1.464;2023-02-10T03:07:06;102358.16;;;4.91;100.00
29839;BME280;18669;53.356;-1.464;2023-02-10T03:09:32;102363.94;;;5.10;100.00
29839;BME280;18669;53.356;-1.464;2023-02-10T03:11:59;102359.19;;;4.96;100.00
29839;BME280;18669;53.356;-1.464;2023-02-10T03:14:25;102359.38;;;5.02;100.00
29839;BME280;18669;53.356;-1.464;2023-02-10T03:16:51;102349.81;;;5.03;100.00
29839;BME280;18669;53.356;-1.464;2023-02-10T03:19:17;102353.66;;;5.16;100.00
29839;BME280;18669;53.356;-1.464;2023-02-10T03:21:43;102366.56;;;5.11;100.00
29839;BME280;18669;53.356;-1.464;2023-02-10T03:24:09;102361.06;;;5.31;100.00
29839;BME280;18669;53.356;-1.464;2023-02-10T03:26:36;102359.13;;;5.23;100.00
29839;BME280;18669;53.356;-1.464;2023-02-10T03:29:03;102353.16;;;5.28;100.00
29839;BME280;18669;53.356;-1.464;2023-02-10T03:31:29;102362.75;;;5.29;100.00
29839;BME280;18669;53.356;-1.464;2023-02-10T03:33:55;102366.28;;;5.31;100.00
29839;BME280;18669;53.356;-1.464;2023-02-10T03:36:21;102353.56;;;5.42;100.00
29839;BME280;18669;53.356;-1.464;2023-02-10T03:38:47;102352.97;;;5.52;100.00
29839;BME280;18669;53.356;-1.464;2023-02-10T03:41:13;102347.16;;;5.62;100.00
29839;BME280;18669;53.356;-1.464;2023-02-10T03:43:39;102347.72;;;5.84;100.00
29839;BME280;18669;53.356;-1.464;2023-02-10T03:46:09;102337.09;;;5.76;100.00
29839;BME280;18669;53.356;-1.464;2023-02-10T03:48:35;102335.22;;;5.72;100.00
29839;BME280;18669;53.356;-1.464;2023-02-10T03:51:03;102340.81;;;5.86;100.00
29839;BME280;18669;53.356;-1.464;2023-02-10T03:53:30;102320.81;;;5.87;100.00
29839;BME280;18669;53.356;-1.464;2023-02-10T03:55:56;102316.38;;;5.84;100.00
29839;BME280;18669;53.356;-1.464;2023-02-10T03:58:23;102318.28;;;5.90;100.00
29839;BME280;18669;53.356;-1.464;2023-02-10T04:00:49;102314.75;;;5.88;100.00
29839;BME280;18669;53.356;-1.464;2023-02-10T04:03:15;102321.16;;;5.99;100.00
29839;BME280;18669;53.356;-1.464;2023-02-10T04:05:41;102319.53;;;6.03;100.00
29839;BME280;18669;53.356;-1.464;2023-02-10T04:08:08;102315.25;;;6.06;100.00
29839;BME280;18669;53.356;-1.464;2023-02-10T04:10:34;102315.16;;;6.02;100.00
29839;BME280;18669;53.356;-1.464;2023-02-10T04:13:00;102330.81;;;6.02;100.00
29839;BME280;18669;53.356;-1.464;2023-02-10T04:15:26;102329.22;;;6.07;100.00
29839;BME280;18669;53.356;-1.464;2023-02-10T04:17:52;102335.38;;;6.10;100.00
29839;BME280;18669;53.356;-1.464;2023-02-10T04:20:18;102348.34;;;6.06;100.00
29839;BME280;18669;53.356;-1.464;2023-02-10T04:22:44;102358.88;;;6.09;100.00
29839;BME280;18669;53.356;-1.464;2023-02-10T04:25:10;102340.50;;;6.06;100.00
29839;BME280;18669;53.356;-1.464;2023-02-10T04:27:36;102355.25;;;6.04;100.00
29839;BME280;18669;53.356;-1.464;2023-02-10T04:30:02;102348.38;;;6.07;100.00
29839;BME280;18669;53.356;-1.464;2023-02-10T04:32:28;102344.41;;;6.22;100.00
29839;BME280;18669;53.356;-1.464;2023-02-10T04:34:54;102327.16;;;5.96;100.00
29839;BME280;18669;53.356;-1.464;2023-02-10T04:37:21;102329.75;;;5.95;100.00
29839;BME280;18669;53.356;-1.464;2023-02-10T04:39:47;102344.59;;;5.96;100.00
29839;BME280;18669;53.356;-1.464;2023-02-10T04:42:13;102338.53;;;5.98;100.00
29839;BME280;18669;53.356;-1.464;2023-02-10T04:44:39;102351.72;;;6.02;100.00
29839;BME280;18669;53.356;-1.464;2023-02-10T04:47:05;102344.84;;;6.05;100.00
29839;BME280;18669;53.356;-1.464;2023-02-10T04:49:31;102341.34;;;6.05;100.00
29839;BME280;18669;53.356;-1.464;2023-02-10T04:51:57;102348.28;;;6.04;100.00
29839;BME280;18669;53.356;-1.464;2023-02-10T04:54:23;102347.44;;;6.05;100.00
29839;BME280;18669;53.356;-1.464;2023-02-10T04:56:50;102350.91;;;6.04;100.00
29839;BME280;18669;53.356;-1.464;2023-02-10T04:59:16;102343.16;;;6.07;100.00
29839;BME280;18669;53.356;-1.464;2023-02-10T05:01:42;102339.59;;;6.04;100.00
29839;BME280;18669;53.356;-1.464;2023-02-10T05:04:08;102333.16;;;5.92;100.00
29839;BME280;18669;53.356;-1.464;2023-02-10T05:06:34;102327.72;;;5.85;100.00
29839;BME280;18669;53.356;-1.464;2023-02-10T05:09:00;102329.34;;;5.79;100.00
29839;BME280;18669;53.356;-1.464;2023-02-10T05:11:26;102327.69;;;5.83;100.00
29839;BME280;18669;53.356;-1.464;2023-02-10T05:13:52;102320.75;;;5.83;100.00
29839;BME280;18669;53.356;-1.464;2023-02-10T05:16:18;102309.34;;;5.80;100.00
29839;BME280;18669;53.356;-1.464;2023-02-10T05:18:44;102301.56;;;5.83;100.00
29839;BME280;18669;53.356;-1.464;2023-02-10T05:21:11;102292.25;;;5.93;100.00
29839;BME280;18669;53.356;-1.464;2023-02-10T05:23:39;102282.59;;;5.90;100.00
29839;BME280;18669;53.356;-1.464;2023-02-10T05:26:06;102281.53;;;5.82;100.00
29839;BME280;18669;53.356;-1.464;2023-02-10T05:28:32;102284.69;;;5.70;100.00
29839;BME280;18669;53.356;-1.464;2023-02-10T05:30:58;102273.31;;;5.68;100.00
29839;BME280;18669;53.356;-1.464;2023-02-10T05:33:24;102286.44;;;5.70;100.00
29839;BME280;18669;53.356;-1.464;2023-02-10T05:35:49;102282.06;;;5.68;100.00
29839;BME280;18669;53.356;-1.464;2023-02-10T05:38:15;102289.97;;;5.72;100.00
29839;BME280;18669;53.356;-1.464;2023-02-10T05:40:41;102298.47;;;5.64;100.00
29839;BME280;18669;53.356;-1.464;2023-02-10T05:43:07;102305.34;;;5.61;100.00
29839;BME280;18669;53.356;-1.464;2023-02-10T05:45:35;102300.75;;;5.52;100.00
29839;BME280;18669;53.356;-1.464;2023-02-10T05:48:01;102293.91;;;5.56;100.00
29839;BME280;18669;53.356;-1.464;2023-02-10T05:50:27;102277.25;;;5.52;100.00
29839;BME280;18669;53.356;-1.464;2023-02-10T05:52:55;102264.16;;;5.50;100.00
29839;BME280;18669;53.356;-1.464;2023-02-10T05:55:21;102264.16;;;5.50;100.00
29839;BME280;18669;53.356;-1.464;2023-02-10T05:57:47;102263.97;;;5.43;100.00
29839;BME280;18669;53.356;-1.464;2023-02-10T06:00:14;102272.00;;;5.50;100.00
29839;BME280;18669;53.356;-1.464;2023-02-10T06:02:40;102276.69;;;5.32;100.00
29839;BME280;18669;53.356;-1.464;2023-02-10T06:05:06;102263.50;;;5.26;100.00
29839;BME280;18669;53.356;-1.464;2023-02-10T06:07:32;102264.34;;;5.25;100.00
29839;BME280;18669;53.356;-1.464;2023-02-10T06:09:58;102270.41;;;5.23;100.00
29839;BME280;18669;53.356;-1.464;2023-02-10T06:12:24;102267.09;;;5.31;100.00
29839;BME280;18669;53.356;-1.464;2023-02-10T06:14:50;102273.34;;;5.36;100.00
29839;BME280;18669;53.356;-1.464;2023-02-10T06:17:16;102256.84;;;5.37;100.00
29839;BME280;18669;53.356;-1.464;2023-02-10T06:19:42;102262.97;;;5.37;100.00
29839;BME280;18669;53.356;-1.464;2023-02-10T06:22:09;102259.59;;;5.42;100.00
29839;BME280;18669;53.356;-1.464;2023-02-10T06:24:35;102268.97;;;5.35;100.00
29839;BME280;18669;53.356;-1.464;2023-02-10T06:27:01;102280.28;;;5.35;100.00
29839;BME280;18669;53.356;-1.464;2023-02-10T06:29:27;102289.81;;;5.33;100.00
29839;BME280;18669;53.356;-1.464;2023-02-10T06:31:53;102289.84;;;5.35;100.00
29839;BME280;18669;53.356;-1.464;2023-02-10T06:34:19;102294.38;;;5.41;100.00
29839;BME280;18669;53.356;-1.464;2023-02-10T06:36:45;102280.31;;;5.37;100.00
29839;BME280;18669;53.356;-1.464;2023-02-10T06:39:11;102282.84;;;5.34;100.00
29839;BME280;18669;53.356;-1.464;2023-02-10T06:41:37;102289.84;;;5.35;100.00
29839;BME280;18669;53.356;-1.464;2023-02-10T06:44:03;102291.50;;;5.33;100.00
29839;BME280;18669;53.356;-1.464;2023-02-10T06:46:29;102281.53;;;5.50;100.00
29839;BME280;18669;53.356;-1.464;2023-02-10T06:48:55;102286.16;;;5.27;100.00
29839;BME280;18669;53.356;-1.464;2023-02-10T06:51:21;102305.94;;;5.20;100.00
29839;BME280;18669;53.356;-1.464;2023-02-10T06:53:48;102316.44;;;5.21;100.00
29839;BME280;18669;53.356;-1.464;2023-02-10T06:56:14;102306.13;;;5.26;100.00
29839;BME280;18669;53.356;-1.464;2023-02-10T06:58:40;102294.00;;;5.28;100.00
29839;BME280;18669;53.356;-1.464;2023-02-10T07:01:10;102296.53;;;5.25;100.00
29839;BME280;18669;53.356;-1.464;2023-02-10T07:03:37;102287.78;;;5.23;100.00
29839;BME280;18669;53.356;-1.464;2023-02-10T07:06:03;102292.44;;;5.35;100.00
29839;BME280;18669;53.356;-1.464;2023-02-10T07:08:29;102287.84;;;5.25;100.00
29839;BME280;18669;53.356;-1.464;2023-02-10T07:10:55;102265.88;;;5.18;100.00
29839;BME280;18669;53.356;-1.464;2023-02-10T07:13:21;102246.88;;;5.22;100.00
29839;BME280;18669;53.356;-1.464;2023-02-10T07:15:47;102218.31;;;5.27;100.00
29839;BME280;18669;53.356;-1.464;2023-02-10T07:18:13;102227.75;;;5.23;100.00
29839;BME280;18669;53.356;-1.464;2023-02-10T07:20:39;102232.41;;;5.35;100.00
29839;BME280;18669;53.356;-1.464;2023-02-10T07:23:05;102234.00;;;5.28;100.00
29839;BME280;18669;53.356;-1.464;2023-02-10T07:25:31;102247.38;;;5.41;100.00
29839;BME280;18669;53.356;-1.464;2023-02-10T07:27:57;102252.31;;;5.30;100.00
29839;BME280;18669;53.356;-1.464;2023-02-10T07:30:23;102255.88;;;5.33;100.00
29839;BME280;18669;53.356;-1.464;2023-02-10T07:32:49;102259.50;;;5.38;100.00
29839;BME280;18669;53.356;-1.464;2023-02-10T07:35:15;102256.84;;;5.37;100.00
29839;BME280;18669;53.356;-1.464;2023-02-10T07:37:41;102251.75;;;5.42;100.00
29839;BME280;18669;53.356;-1.464;2023-02-10T07:40:08;102247.59;;;5.50;100.00
29839;BME280;18669;53.356;-1.464;2023-02-10T07:42:34;102255.41;;;5.48;100.00
29839;BME280;18669;53.356;-1.464;2023-02-10T07:45:01;102249.25;;;5.46;100.00
29839;BME280;18669;53.356;-1.464;2023-02-10T07:47:27;102265.75;;;5.44;100.00
29839;BME280;18669;53.356;-1.464;2023-02-10T07:49:53;102279.09;;;5.56;100.00
29839;BME280;18669;53.356;-1.464;2023-02-10T07:52:20;102269.31;;;5.47;100.00
29839;BME280;18669;53.356;-1.464;2023-02-10T07:54:47;102273.09;;;5.59;100.00
29839;BME280;18669;53.356;-1.464;2023-02-10T07:57:14;102271.41;;;5.61;100.00
29839;BME280;18669;53.356;-1.464;2023-02-10T07:59:40;102269.75;;;5.64;100.00
29839;BME280;18669;53.356;-1.464;2023-02-10T08:02:07;102267.41;;;5.74;100.00
29839;BME280;18669;53.356;-1.464;2023-02-10T08:04:34;102257.53;;;5.63;100.00
29839;BME280;18669;53.356;-1.464;2023-02-10T08:07:00;102260.66;;;5.82;100.00
29839;BME280;18669;53.356;-1.464;2023-02-10T08:09:26;102259.81;;;5.51;100.00
29839;BME280;18669;53.356;-1.464;2023-02-10T08:11:52;102261.72;;;5.57;100.00
29839;BME280;18669;53.356;-1.464;2023-02-10T08:14:18;102249.50;;;5.56;100.00
29839;BME280;18669;53.356;-1.464;2023-02-10T08:16:44;102250.38;;;5.56;100.00
29839;BME280;18669;53.356;-1.464;2023-02-10T08:19:10;102252.03;;;5.52;100.00
29839;BME280;18669;53.356;-1.464;2023-02-10T08:21:36;102251.38;;;5.60;100.00
29839;BME280;18669;53.356;-1.464;2023-02-10T08:24:02;102254.00;;;5.61;100.00
29839;BME280;18669;53.356;-1.464;2023-02-10T08:26:28;102258.94;;;5.84;100.00
29839;BME280;18669;53.356;-1.464;2023-02-10T08:28:54;102242.78;;;5.64;100.00
29839;BME280;18669;53.356;-1.464;2023-02-10T08:31:21;102243.00;;;5.73;100.00
29839;BME280;18669;53.356;-1.464;2023-02-10T08:33:47;102243.84;;;5.72;100.00
29839;BME280;18669;53.356;-1.464;2023-02-10T08:36:14;102238.69;;;5.75;100.00
29839;BME280;18669;53.356;-1.464;2023-02-10T08:38:41;102246.34;;;5.67;100.00
29839;BME280;18669;53.356;-1.464;2023-02-10T08:41:07;102256.19;;;5.78;100.00
29839;BME280;18669;53.356;-1.464;2023-02-10T08:43:33;102257.03;;;5.77;100.00
29839;BME280;18669;53.356;-1.464;2023-02-10T08:46:00;102262.47;;;5.86;100.00
29839;BME280;18669;53.356;-1.464;2023-02-10T08:48:27;102240.94;;;5.95;100.00
29839;BME280;18669;53.356;-1.464;2023-02-10T08:50:53;102240.03;;;5.94;100.00
29839;BME280;18669;53.356;-1.464;2023-02-10T08:53:20;102227.97;;;6.00;100.00
29839;BME280;18669;53.356;-1.464;2023-02-10T08:56:00;102237.25;;;6.22;100.00
29839;BME280;18669;53.356;-1.464;2023-02-10T08:58:26;102231.88;;;6.16;100.00
29839;BME280;18669;53.356;-1.464;2023-02-10T09:00:52;102230.19;;;6.18;100.00
29839;BME280;18669;53.356;-1.464;2023-02-10T09:03:18;102212.13;;;6.29;100.00
29839;BME280;18669;53.356;-1.464;2023-02-10T09:05:45;102190.38;;;6.30;100.00
29839;BME280;18669;53.356;-1.464;2023-02-10T09:08:12;102194.72;;;6.29;100.00
29839;BME280;18669;53.356;-1.464;2023-02-10T09:10:39;102200.03;;;6.32;100.00
29839;BME280;18669;53.356;-1.464;2023-02-10T09:13:06;102204.50;;;6.38;100.00
29839;BME280;18669;53.356;-1.464;2023-02-10T09:15:37;102187.19;;;6.45;100.00
29839;BME280;18669;53.356;-1.464;2023-02-10T09:18:03;102204.34;;;6.30;100.00
29839;BME280;18669;53.356;-1.464;2023-02-10T09:20:30;102217.41;;;6.32;100.00
29839;BME280;18669;53.356;-1.464;2023-02-10T09:22:56;102204.44;;;6.36;100.00
29839;BME280;18669;53.356;-1.464;2023-02-10T09:25:22;102214.09;;;6.39;100.00
29839;BME280;18669;53.356;-1.464;2023-02-10T09:27:48;102219.41;;;6.42;100.00
29839;BME280;18669;53.356;-1.464;2023-02-10T09:30:14;102222.09;;;6.45;100.00
29839;BME280;18669;53.356;-1.464;2023-02-10T09:32:40;102227.47;;;6.53;100.00
29839;BME280;18669;53.356;-1.464;2023-02-10T09:35:06;102231.16;;;6.61;100.00
29839;BME280;18669;53.356;-1.464;2023-02-10T09:37:32;102232.06;;;6.63;100.00
29839;BME280;18669;53.356;-1.464;2023-02-10T09:39:58;102230.22;;;6.59;100.00
29839;BME280;18669;53.356;-1.464;2023-02-10T09:45:12;102227.22;;;6.82;100.00
29839;BME280;18669;53.356;-1.464;2023-02-10T09:47:50;102236.19;;;6.93;100.00
29839;BME280;18669;53.356;-1.464;2023-02-10T09:53:17;102229.72;;;7.20;100.00
29839;BME280;18669;53.356;-1.464;2023-02-10T09:55:47;102229.59;;;7.14;100.00
29839;BME280;18669;53.356;-1.464;2023-02-10T10:00:52;102247.50;;;7.37;100.00
29839;BME280;18669;53.356;-1.464;2023-02-10T10:03:26;102240.69;;;7.48;100.00
29839;BME280;18669;53.356;-1.464;2023-02-10T10:06:03;102239.22;;;7.63;100.00
29839;BME280;18669;53.356;-1.464;2023-02-10T10:11:25;102243.00;;;7.80;100.00
29839;BME280;18669;53.356;-1.464;2023-02-10T10:13:54;102250.00;;;7.81;100.00
29839;BME280;18669;53.356;-1.464;2023-02-10T10:21:43;102249.59;;;8.09;100.00
29839;BME280;18669;53.356;-1.464;2023-02-10T10:24:28;102252.16;;;8.05;100.00
29839;BME280;18669;53.356;-1.464;2023-02-10T10:35:25;102252.38;;;8.19;100.00
29839;BME280;18669;53.356;-1.464;2023-02-10T10:37:54;102242.69;;;8.15;100.00
29839;BME280;18669;53.356;-1.464;2023-02-10T10:40:32;102254.28;;;8.30;100.00
29839;BME280;18669;53.356;-1.464;2023-02-10T10:42:59;102251.81;;;8.39;100.00
29839;BME280;18669;53.356;-1.464;2023-02-10T10:45:32;102240.50;;;8.45;100.00
29839;BME280;18669;53.356;-1.464;2023-02-10T10:48:15;102241.69;;;8.64;100.00
29839;BME280;18669;53.356;-1.464;2023-02-10T10:50:43;102241.81;;;8.73;100.00
29839;BME280;18669;53.356;-1.464;2023-02-10T10:53:16;102236.91;;;9.00;100.00
29839;BME280;18669;53.356;-1.464;2023-02-10T10:55:46;102239.59;;;9.07;100.00
29839;BME280;18669;53.356;-1.464;2023-02-10T10:58:30;102237.22;;;9.28;100.00
29839;BME280;18669;53.356;-1.464;2023-02-10T11:00:58;102239.91;;;9.35;100.00
29839;BME280;18669;53.356;-1.464;2023-02-10T11:03:25;102242.53;;;9.35;100.00
29839;BME280;18669;53.356;-1.464;2023-02-10T11:05:57;102252.47;;;9.67;100.00
29839;BME280;18669;53.356;-1.464;2023-02-10T11:08:26;102241.06;;;9.64;100.00
29839;BME280;18669;53.356;-1.464;2023-02-10T11:10:55;102240.25;;;9.73;100.00
29839;BME280;18669;53.356;-1.464;2023-02-10T11:13:25;102236.03;;;9.87;100.00
29839;BME280;18669;53.356;-1.464;2023-02-10T11:16:12;102226.44;;;9.97;100.00
29839;BME280;18669;53.356;-1.464;2023-02-10T11:21:33;102223.06;;;10.15;100.00
29839;BME280;18669;53.356;-1.464;2023-02-10T11:24:00;102217.78;;;10.13;100.00
29839;BME280;18669;53.356;-1.464;2023-02-10T11:26:26;102210.00;;;10.29;100.00
29839;BME280;18669;53.356;-1.464;2023-02-10T11:28:53;102204.84;;;10.44;100.00
29839;BME280;18669;53.356;-1.464;2023-02-10T11:31:33;102216.34;;;10.54;100.00
29839;BME280;18669;53.356;-1.464;2023-02-10T11:36:42;102220.78;;;10.74;100.00
29839;BME280;18669;53.356;-1.464;2023-02-10T11:39:27;102209.47;;;10.98;100.00
29839;BME280;18669;53.356;-1.464;2023-02-10T11:41:55;102209.34;;;10.66;100.00
29839;BME280;18669;53.356;-1.464;2023-02-10T11:44:26;102210.25;;;10.74;100.00
29839;BME280;18669;53.356;-1.464;2023-02-10T11:46:58;102210.22;;;10.68;100.00
29839;BME280;18669;53.356;-1.464;2023-02-10T11:49:24;102211.09;;;10.57;100.00
29839;BME280;18669;53.356;-1.464;2023-02-10T11:51:55;102201.44;;;10.56;100.00
29839;BME280;18669;53.356;-1.464;2023-02-10T11:54:23;102199.59;;;10.48;100.00
29839;BME280;18669;53.356;-1.464;2023-02-10T12:08:11;102208.25;;;10.29;100.00
29839;BME280;18669;53.356;-1.464;2023-02-10T12:10:47;102216.09;;;10.20;100.00
29839;BME280;18669;53.356;-1.464;2023-02-10T12:24:11;102187.88;;;9.97;100.00
29839;BME280;18669;53.356;-1.464;2023-02-10T12:26:55;102169.53;;;10.05;100.00
29839;BME280;18669;53.356;-1.464;2023-02-10T12:29:29;102189.59;;;9.92;100.00
29839;BME280;18669;53.356;-1.464;2023-02-10T12:37:34;102190.47;;;9.93;100.00
29839;BME280;18669;53.356;-1.464;2023-02-10T12:43:20;102182.41;;;9.68;100.00
29839;BME280;18669;53.356;-1.464;2023-02-10T12:46:14;102189.28;;;9.53;100.00
29839;BME280;18669;53.356;-1.464;2023-02-10T12:49:04;102179.59;;;9.46;100.00
29839;BME280;18669;53.356;-1.464;2023-02-10T12:51:45;102182.13;;;9.35;100.00
29839;BME280;18669;53.356;-1.464;2023-02-10T12:54:39;102186.44;;;9.30;100.00
29839;BME280;18669;53.356;-1.464;2023-02-10T12:57:10;102168.84;;;9.21;100.00
29839;BME280;18669;53.356;-1.464;2023-02-10T12:59:48;102167.94;;;9.15;100.00
29839;BME280;18669;53.356;-1.464;2023-02-10T13:02:45;102168.00;;;9.24;100.00
29839;BME280;18669;53.356;-1.464;2023-02-10T13:05:18;102166.19;;;9.18;100.00
29839;BME280;18669;53.356;-1.464;2023-02-10T13:07:56;102165.28;;;9.13;100.00
29839;BME280;18669;53.356;-1.464;2023-02-10T13:10:29;102167.03;;;9.13;100.00
29839;BME280;18669;53.356;-1.464;2023-02-10T13:13:00;102170.41;;;9.02;100.00
29839;BME280;18669;53.356;-1.464;2023-02-10T13:15:32;102160.75;;;8.98;100.00
29839;BME280;18669;53.356;-1.464;2023-02-10T13:18:01;102158.00;;;8.89;100.00
29839;BME280;18669;53.356;-1.464;2023-02-10T13:23:44;102159.00;;;8.99;100.00
29839;BME280;18669;53.356;-1.464;2023-02-10T13:31:46;102143.25;;;9.00;100.00
29839;BME280;18669;53.356;-1.464;2023-02-10T13:37:06;102130.13;;;8.99;100.00
29839;BME280;18669;53.356;-1.464;2023-02-10T13:39:35;102141.50;;;8.99;100.00
29839;BME280;18669;53.356;-1.464;2023-02-10T13:42:20;102141.56;;;9.05;100.00
29839;BME280;18669;53.356;-1.464;2023-02-10T13:45:00;102128.44;;;9.05;100.00
29839;BME280;18669;53.356;-1.464;2023-02-10T13:47:38;102127.69;;;9.16;100.00
29839;BME280;18669;53.356;-1.464;2023-02-10T14:01:02;102122.41;;;9.14;100.00
29839;BME280;18669;53.356;-1.464;2023-02-10T14:05:50;102139.00;;;9.13;100.00
29839;BME280;18669;53.356;-1.464;2023-02-10T14:08:27;102131.16;;;9.15;100.00
29839;BME280;18669;53.356;-1.464;2023-02-10T14:13:55;102120.53;;;9.04;100.00
29839;BME280;18669;53.356;-1.464;2023-02-10T14:16:31;102117.84;;;8.94;100.00
29839;BME280;18669;53.356;-1.464;2023-02-10T14:19:04;102108.13;;;8.87;100.00
29839;BME280;18669;53.356;-1.464;2023-02-10T14:21:39;102112.44;;;8.82;100.00
29839;BME280;18669;53.356;-1.464;2023-02-10T14:24:12;102115.94;;;8.81;100.00
29839;BME280;18669;53.356;-1.464;2023-02-10T14:26:42;102108.91;;;8.77;100.00
29839;BME280;18669;53.356;-1.464;2023-02-10T14:29:14;102088.75;;;8.76;100.00
29839;BME280;18669;53.356;-1.464;2023-02-10T14:31:44;102092.31;;;8.79;100.00
29839;BME280;18669;53.356;-1.464;2023-02-10T14:34:23;102093.19;;;8.78;100.00
29839;BME280;18669;53.356;-1.464;2023-02-10T14:36:57;102088.88;;;8.87;100.00
29839;BME280;18669;53.356;-1.464;2023-02-10T14:39:26;102109.88;;;8.85;100.00
29839;BME280;18669;53.356;-1.464;2023-02-10T14:41:54;102111.66;;;8.91;100.00